Weather at Woodhouse Airfield [CLOSED]

Public forecast

Using degrees Celsius for public forecast. Weather courtesy of forecast.io.

Closest aviation weather report (METAR) to Woodhouse Airfield

Closest report is Lethbridge County Airport, 33.1 nm (61.4 km) SE.

2024/05/22 18:00 (retrieved 28 minutes ago)

CYQL 221800Z 05014KT 20SM BKN016 OVC045 11/07 A2975 RMK SC5SC3 SLP090 DENSITY ALT 3500FT

Closest aviation forecast (TAF) to Woodhouse Airfield

Closest forecast is Lethbridge County Airport, 33.1 nm (61.4 km) SE.

2024/05/22 18:57 (retrieved 0 seconds ago)

TAF TAF CYQL 221755Z 2218/2306 01012KT P6SM BKN020 OVC025 BECMG 2219/2221 SCT020 BKN040 FM222100 04012G22KT P6SM BKN040 TEMPO 2221/2302 P6SM -SHRA BKN030 FM230200 04012KT P6SM BKN040 BECMG 2303/2305 FEW040 FM230500 02005KT P6SM SKC RMK NXT FCST BY 230000Z